sensor_id;sensor_type;location;lat;lon;timestamp;P1;durP1;ratioP1;P2;durP2;ratioP2
62687;SDS011;48752;51.056;17.056;2023-06-10T00:01:18;64.53;;;33.85;;
62687;SDS011;48752;51.056;17.056;2023-06-10T00:03:43;67.40;;;32.40;;
62687;SDS011;48752;51.056;17.056;2023-06-10T00:06:08;63.93;;;32.00;;
62687;SDS011;48752;51.056;17.056;2023-06-10T00:08:33;69.30;;;33.70;;
62687;SDS011;48752;51.056;17.056;2023-06-10T00:10:59;62.25;;;32.70;;
62687;SDS011;48752;51.056;17.056;2023-06-10T00:13:25;65.82;;;31.88;;
62687;SDS011;48752;51.056;17.056;2023-06-10T00:15:50;57.33;;;32.05;;
62687;SDS011;48752;51.056;17.056;2023-06-10T00:18:16;61.40;;;31.30;;
62687;SDS011;48752;51.056;17.056;2023-06-10T00:20:42;72.30;;;33.45;;
62687;SDS011;48752;51.056;17.056;2023-06-10T00:23:07;60.92;;;31.35;;
62687;SDS011;48752;51.056;17.056;2023-06-10T00:25:33;62.47;;;31.00;;
62687;SDS011;48752;51.056;17.056;2023-06-10T00:27:58;61.00;;;30.15;;
62687;SDS011;48752;51.056;17.056;2023-06-10T00:30:24;56.47;;;29.27;;
62687;SDS011;48752;51.056;17.056;2023-06-10T00:32:49;57.58;;;31.20;;
62687;SDS011;48752;51.056;17.056;2023-06-10T00:37:39;62.63;;;29.53;;
62687;SDS011;48752;51.056;17.056;2023-06-10T00:40:05;62.28;;;30.23;;
62687;SDS011;48752;51.056;17.056;2023-06-10T00:42:31;58.28;;;29.65;;
62687;SDS011;48752;51.056;17.056;2023-06-10T00:44:56;65.15;;;31.38;;
62687;SDS011;48752;51.056;17.056;2023-06-10T00:47:22;60.90;;;29.15;;
62687;SDS011;48752;51.056;17.056;2023-06-10T00:49:47;62.38;;;30.00;;
62687;SDS011;48752;51.056;17.056;2023-06-10T00:52:13;60.88;;;30.25;;
62687;SDS011;48752;51.056;17.056;2023-06-10T00:54:39;60.38;;;29.17;;
62687;SDS011;48752;51.056;17.056;2023-06-10T00:57:05;66.43;;;30.58;;
62687;SDS011;48752;51.056;17.056;2023-06-10T00:59:30;63.42;;;30.25;;
62687;SDS011;48752;51.056;17.056;2023-06-10T01:01:56;58.45;;;30.35;;
62687;SDS011;48752;51.056;17.056;2023-06-10T01:04:21;64.07;;;29.27;;
62687;SDS011;48752;51.056;17.056;2023-06-10T01:12:08;59.87;;;30.17;;
62687;SDS011;48752;51.056;17.056;2023-06-10T01:14:35;63.05;;;29.38;;
62687;SDS011;48752;51.056;17.056;2023-06-10T01:17:00;63.50;;;29.58;;
62687;SDS011;48752;51.056;17.056;2023-06-10T01:19:26;61.03;;;30.15;;
62687;SDS011;48752;51.056;17.056;2023-06-10T01:21:51;67.93;;;30.38;;
62687;SDS011;48752;51.056;17.056;2023-06-10T01:24:16;59.03;;;29.77;;
62687;SDS011;48752;51.056;17.056;2023-06-10T01:26:43;63.05;;;30.48;;
62687;SDS011;48752;51.056;17.056;2023-06-10T01:29:45;62.28;;;30.08;;
62687;SDS011;48752;51.056;17.056;2023-06-10T01:32:14;64.78;;;29.80;;
62687;SDS011;48752;51.056;17.056;2023-06-10T01:34:40;64.50;;;30.45;;
62687;SDS011;48752;51.056;17.056;2023-06-10T01:37:07;62.90;;;30.08;;
62687;SDS011;48752;51.056;17.056;2023-06-10T01:39:33;59.13;;;30.17;;
62687;SDS011;48752;51.056;17.056;2023-06-10T01:41:58;64.03;;;29.70;;
62687;SDS011;48752;51.056;17.056;2023-06-10T01:44:24;63.25;;;29.85;;
62687;SDS011;48752;51.056;17.056;2023-06-10T01:46:50;56.42;;;29.38;;
62687;SDS011;48752;51.056;17.056;2023-06-10T01:49:15;64.70;;;29.92;;
62687;SDS011;48752;51.056;17.056;2023-06-10T01:51:40;56.80;;;29.45;;
62687;SDS011;48752;51.056;17.056;2023-06-10T01:54:06;57.83;;;29.48;;
62687;SDS011;48752;51.056;17.056;2023-06-10T01:56:32;54.22;;;29.42;;
62687;SDS011;48752;51.056;17.056;2023-06-10T01:58:57;55.63;;;28.35;;
62687;SDS011;48752;51.056;17.056;2023-06-10T02:01:24;57.85;;;29.67;;
62687;SDS011;48752;51.056;17.056;2023-06-10T02:03:49;59.67;;;28.50;;
62687;SDS011;48752;51.056;17.056;2023-06-10T02:06:15;53.47;;;27.80;;
62687;SDS011;48752;51.056;17.056;2023-06-10T02:08:40;53.08;;;28.40;;
62687;SDS011;48752;51.056;17.056;2023-06-10T02:11:05;51.40;;;28.35;;
62687;SDS011;48752;51.056;17.056;2023-06-10T02:15:57;52.05;;;27.48;;
62687;SDS011;48752;51.056;17.056;2023-06-10T02:18:22;53.97;;;29.35;;
62687;SDS011;48752;51.056;17.056;2023-06-10T02:20:47;45.78;;;25.73;;
62687;SDS011;48752;51.056;17.056;2023-06-10T02:23:13;53.97;;;28.13;;
62687;SDS011;48752;51.056;17.056;2023-06-10T02:28:05;47.53;;;27.08;;
62687;SDS011;48752;51.056;17.056;2023-06-10T02:30:30;44.22;;;27.02;;
62687;SDS011;48752;51.056;17.056;2023-06-10T02:35:21;48.85;;;26.75;;
62687;SDS011;48752;51.056;17.056;2023-06-10T02:42:37;49.70;;;26.33;;
62687;SDS011;48752;51.056;17.056;2023-06-10T02:45:03;47.83;;;26.10;;
62687;SDS011;48752;51.056;17.056;2023-06-10T02:47:28;49.90;;;26.05;;
62687;SDS011;48752;51.056;17.056;2023-06-10T02:49:54;47.92;;;26.05;;
62687;SDS011;48752;51.056;17.056;2023-06-10T02:52:19;51.88;;;27.67;;
62687;SDS011;48752;51.056;17.056;2023-06-10T02:54:45;52.33;;;26.67;;
62687;SDS011;48752;51.056;17.056;2023-06-10T02:57:10;51.28;;;27.15;;
62687;SDS011;48752;51.056;17.056;2023-06-10T02:59:36;48.50;;;27.08;;
62687;SDS011;48752;51.056;17.056;2023-06-10T03:02:01;51.67;;;27.30;;
62687;SDS011;48752;51.056;17.056;2023-06-10T03:04:26;52.70;;;27.55;;
62687;SDS011;48752;51.056;17.056;2023-06-10T03:06:54;48.28;;;26.35;;
62687;SDS011;48752;51.056;17.056;2023-06-10T03:09:19;52.97;;;26.98;;
62687;SDS011;48752;51.056;17.056;2023-06-10T03:14:10;51.38;;;27.00;;
62687;SDS011;48752;51.056;17.056;2023-06-10T03:16:35;53.35;;;26.75;;
62687;SDS011;48752;51.056;17.056;2023-06-10T03:19:00;50.67;;;27.45;;
62687;SDS011;48752;51.056;17.056;2023-06-10T03:21:26;46.77;;;26.77;;
62687;SDS011;48752;51.056;17.056;2023-06-10T03:26:17;46.80;;;26.50;;
62687;SDS011;48752;51.056;17.056;2023-06-10T03:28:42;56.17;;;27.77;;
62687;SDS011;48752;51.056;17.056;2023-06-10T03:31:07;55.85;;;26.98;;
62687;SDS011;48752;51.056;17.056;2023-06-10T03:33:33;50.90;;;27.75;;
62687;SDS011;48752;51.056;17.056;2023-06-10T03:35:58;54.97;;;29.15;;
62687;SDS011;48752;51.056;17.056;2023-06-10T03:38:24;47.13;;;27.42;;
62687;SDS011;48752;51.056;17.056;2023-06-10T03:40:49;50.65;;;26.55;;
62687;SDS011;48752;51.056;17.056;2023-06-10T03:45:40;52.25;;;27.17;;
62687;SDS011;48752;51.056;17.056;2023-06-10T03:48:06;46.00;;;26.13;;
62687;SDS011;48752;51.056;17.056;2023-06-10T03:50:33;52.63;;;27.50;;
62687;SDS011;48752;51.056;17.056;2023-06-10T03:55:23;45.65;;;25.55;;
62687;SDS011;48752;51.056;17.056;2023-06-10T03:57:49;44.63;;;26.10;;
62687;SDS011;48752;51.056;17.056;2023-06-10T04:00:15;47.35;;;26.02;;
62687;SDS011;48752;51.056;17.056;2023-06-10T04:02:40;49.33;;;26.98;;
62687;SDS011;48752;51.056;17.056;2023-06-10T04:07:37;41.00;;;25.40;;
62687;SDS011;48752;51.056;17.056;2023-06-10T04:10:05;46.97;;;26.55;;
62687;SDS011;48752;51.056;17.056;2023-06-10T04:12:31;40.53;;;25.52;;
62687;SDS011;48752;51.056;17.056;2023-06-10T04:14:56;40.28;;;26.00;;
62687;SDS011;48752;51.056;17.056;2023-06-10T04:17:22;44.47;;;28.00;;
62687;SDS011;48752;51.056;17.056;2023-06-10T04:27:02;43.85;;;26.52;;
62687;SDS011;48752;51.056;17.056;2023-06-10T04:36:43;45.63;;;30.15;;
62687;SDS011;48752;51.056;17.056;2023-06-10T04:43:59;41.00;;;29.27;;
62687;SDS011;48752;51.056;17.056;2023-06-10T04:46:24;41.73;;;28.90;;
62687;SDS011;48752;51.056;17.056;2023-06-10T04:48:50;36.93;;;27.57;;
62687;SDS011;48752;51.056;17.056;2023-06-10T04:51:15;40.80;;;26.90;;
62687;SDS011;48752;51.056;17.056;2023-06-10T04:53:40;37.50;;;26.90;;
62687;SDS011;48752;51.056;17.056;2023-06-10T04:56:06;37.50;;;25.52;;
62687;SDS011;48752;51.056;17.056;2023-06-10T04:58:32;38.10;;;26.15;;
62687;SDS011;48752;51.056;17.056;2023-06-10T05:00:57;39.15;;;26.20;;
62687;SDS011;48752;51.056;17.056;2023-06-10T05:03:23;34.80;;;27.33;;
62687;SDS011;48752;51.056;17.056;2023-06-10T05:05:48;35.80;;;25.23;;
62687;SDS011;48752;51.056;17.056;2023-06-10T05:08:13;33.13;;;26.13;;
62687;SDS011;48752;51.056;17.056;2023-06-10T05:10:39;34.58;;;25.52;;
62687;SDS011;48752;51.056;17.056;2023-06-10T05:13:04;36.42;;;26.35;;
62687;SDS011;48752;51.056;17.056;2023-06-10T05:15:29;34.42;;;26.55;;
62687;SDS011;48752;51.056;17.056;2023-06-10T05:17:56;30.52;;;24.45;;
62687;SDS011;48752;51.056;17.056;2023-06-10T05:20:22;29.35;;;24.63;;
62687;SDS011;48752;51.056;17.056;2023-06-10T05:22:47;27.70;;;22.35;;
62687;SDS011;48752;51.056;17.056;2023-06-10T05:25:12;26.13;;;22.07;;
62687;SDS011;48752;51.056;17.056;2023-06-10T05:27:38;28.33;;;22.27;;
62687;SDS011;48752;51.056;17.056;2023-06-10T05:30:05;28.98;;;22.08;;
62687;SDS011;48752;51.056;17.056;2023-06-10T05:32:32;25.88;;;21.63;;
62687;SDS011;48752;51.056;17.056;2023-06-10T05:34:57;25.85;;;21.30;;
62687;SDS011;48752;51.056;17.056;2023-06-10T05:37:25;23.65;;;21.13;;
62687;SDS011;48752;51.056;17.056;2023-06-10T05:39:50;26.30;;;21.00;;
62687;SDS011;48752;51.056;17.056;2023-06-10T05:42:16;23.15;;;19.73;;
62687;SDS011;48752;51.056;17.056;2023-06-10T05:44:41;23.45;;;20.40;;
62687;SDS011;48752;51.056;17.056;2023-06-10T05:47:06;21.85;;;19.40;;
62687;SDS011;48752;51.056;17.056;2023-06-10T05:49:32;29.58;;;19.52;;
62687;SDS011;48752;51.056;17.056;2023-06-10T05:51:57;22.25;;;19.95;;
62687;SDS011;48752;51.056;17.056;2023-06-10T05:54:24;23.55;;;18.42;;
62687;SDS011;48752;51.056;17.056;2023-06-10T05:56:49;22.20;;;19.80;;
62687;SDS011;48752;51.056;17.056;2023-06-10T05:59:14;21.75;;;18.83;;
62687;SDS011;48752;51.056;17.056;2023-06-10T06:01:39;20.17;;;17.98;;
62687;SDS011;48752;51.056;17.056;2023-06-10T06:04:05;20.98;;;18.75;;
62687;SDS011;48752;51.056;17.056;2023-06-10T06:06:30;23.25;;;18.48;;
62687;SDS011;48752;51.056;17.056;2023-06-10T06:08:55;22.03;;;18.23;;
62687;SDS011;48752;51.056;17.056;2023-06-10T06:11:20;23.03;;;18.33;;
62687;SDS011;48752;51.056;17.056;2023-06-10T06:13:46;22.67;;;19.23;;
62687;SDS011;48752;51.056;17.056;2023-06-10T06:16:13;21.58;;;17.70;;
62687;SDS011;48752;51.056;17.056;2023-06-10T06:18:38;22.30;;;19.13;;
62687;SDS011;48752;51.056;17.056;2023-06-10T06:21:04;21.90;;;18.20;;
62687;SDS011;48752;51.056;17.056;2023-06-10T06:23:29;24.80;;;16.90;;
62687;SDS011;48752;51.056;17.056;2023-06-10T06:28:20;18.63;;;16.73;;
62687;SDS011;48752;51.056;17.056;2023-06-10T06:30:47;21.45;;;18.30;;
62687;SDS011;48752;51.056;17.056;2023-06-10T06:33:12;20.88;;;18.10;;
62687;SDS011;48752;51.056;17.056;2023-06-10T06:35:38;20.33;;;18.08;;
62687;SDS011;48752;51.056;17.056;2023-06-10T06:38:03;20.70;;;17.02;;
62687;SDS011;48752;51.056;17.056;2023-06-10T06:40:29;20.25;;;17.75;;
62687;SDS011;48752;51.056;17.056;2023-06-10T06:42:54;19.33;;;16.83;;
62687;SDS011;48752;51.056;17.056;2023-06-10T06:45:19;18.75;;;16.75;;
62687;SDS011;48752;51.056;17.056;2023-06-10T06:47:45;20.80;;;15.68;;
62687;SDS011;48752;51.056;17.056;2023-06-10T06:50:10;21.20;;;17.30;;
62687;SDS011;48752;51.056;17.056;2023-06-10T06:52:36;18.77;;;16.65;;
62687;SDS011;48752;51.056;17.056;2023-06-10T06:55:01;22.67;;;16.90;;
62687;SDS011;48752;51.056;17.056;2023-06-10T06:57:27;21.70;;;16.58;;
62687;SDS011;48752;51.056;17.056;2023-06-10T06:59:52;19.17;;;17.15;;
62687;SDS011;48752;51.056;17.056;2023-06-10T07:02:17;19.65;;;16.58;;
62687;SDS011;48752;51.056;17.056;2023-06-10T07:04:44;18.15;;;16.25;;
62687;SDS011;48752;51.056;17.056;2023-06-10T07:07:10;20.05;;;17.15;;
62687;SDS011;48752;51.056;17.056;2023-06-10T07:09:36;18.20;;;16.13;;
62687;SDS011;48752;51.056;17.056;2023-06-10T07:12:02;19.77;;;16.90;;
62687;SDS011;48752;51.056;17.056;2023-06-10T07:14:27;20.88;;;17.05;;
62687;SDS011;48752;51.056;17.056;2023-06-10T07:16:52;21.33;;;17.73;;
62687;SDS011;48752;51.056;17.056;2023-06-10T07:19:18;20.10;;;17.97;;
62687;SDS011;48752;51.056;17.056;2023-06-10T07:21:43;22.33;;;17.40;;
62687;SDS011;48752;51.056;17.056;2023-06-10T07:24:08;21.00;;;17.48;;
62687;SDS011;48752;51.056;17.056;2023-06-10T07:26:33;19.25;;;17.05;;
62687;SDS011;48752;51.056;17.056;2023-06-10T07:28:59;19.88;;;17.77;;
62687;SDS011;48752;51.056;17.056;2023-06-10T07:31:24;20.40;;;17.53;;
62687;SDS011;48752;51.056;17.056;2023-06-10T07:33:50;23.85;;;17.90;;
62687;SDS011;48752;51.056;17.056;2023-06-10T07:36:15;19.97;;;16.97;;
62687;SDS011;48752;51.056;17.056;2023-06-10T07:38:40;20.00;;;17.90;;
62687;SDS011;48752;51.056;17.056;2023-06-10T07:41:07;18.40;;;16.50;;
62687;SDS011;48752;51.056;17.056;2023-06-10T07:43:32;19.85;;;17.67;;
62687;SDS011;48752;51.056;17.056;2023-06-10T07:45:57;19.88;;;17.70;;
62687;SDS011;48752;51.056;17.056;2023-06-10T07:48:23;18.67;;;16.48;;
62687;SDS011;48752;51.056;17.056;2023-06-10T07:50:48;19.10;;;16.03;;
62687;SDS011;48752;51.056;17.056;2023-06-10T07:53:13;20.75;;;15.40;;
62687;SDS011;48752;51.056;17.056;2023-06-10T07:55:39;18.23;;;15.38;;
62687;SDS011;48752;51.056;17.056;2023-06-10T08:02:54;15.33;;;13.83;;
62687;SDS011;48752;51.056;17.056;2023-06-10T08:05:21;15.38;;;13.85;;
62687;SDS011;48752;51.056;17.056;2023-06-10T08:24:45;12.40;;;11.07;;
62687;SDS011;48752;51.056;17.056;2023-06-10T08:27:10;13.15;;;10.55;;
62687;SDS011;48752;51.056;17.056;2023-06-10T08:34:25;11.35;;;7.65;;
62687;SDS011;48752;51.056;17.056;2023-06-10T08:41:48;8.07;;;7.25;;
62687;SDS011;48752;51.056;17.056;2023-06-10T08:44:22;7.28;;;6.63;;
62687;SDS011;48752;51.056;17.056;2023-06-10T08:46:52;8.27;;;7.13;;
62687;SDS011;48752;51.056;17.056;2023-06-10T08:49:18;12.85;;;6.85;;
62687;SDS011;48752;51.056;17.056;2023-06-10T09:01:28;5.75;;;4.95;;
62687;SDS011;48752;51.056;17.056;2023-06-10T09:03:53;6.95;;;4.75;;
62687;SDS011;48752;51.056;17.056;2023-06-10T09:08:44;5.15;;;4.50;;
62687;SDS011;48752;51.056;17.056;2023-06-10T09:11:10;7.33;;;4.70;;
62687;SDS011;48752;51.056;17.056;2023-06-10T09:13:35;5.87;;;4.97;;
62687;SDS011;48752;51.056;17.056;2023-06-10T09:16:00;5.47;;;4.50;;
62687;SDS011;48752;51.056;17.056;2023-06-10T09:18:27;5.07;;;4.57;;
62687;SDS011;48752;51.056;17.056;2023-06-10T09:20:53;3.78;;;3.47;;
62687;SDS011;48752;51.056;17.056;2023-06-10T09:23:18;4.75;;;3.85;;
62687;SDS011;48752;51.056;17.056;2023-06-10T09:25:43;5.20;;;3.85;;
62687;SDS011;48752;51.056;17.056;2023-06-10T09:28:12;4.37;;;3.97;;
62687;SDS011;48752;51.056;17.056;2023-06-10T09:30:37;5.78;;;4.90;;
62687;SDS011;48752;51.056;17.056;2023-06-10T09:33:09;4.43;;;4.03;;
62687;SDS011;48752;51.056;17.056;2023-06-10T09:35:35;7.88;;;4.32;;
62687;SDS011;48752;51.056;17.056;2023-06-10T09:38:00;4.67;;;3.87;;
62687;SDS011;48752;51.056;17.056;2023-06-10T09:40:26;5.60;;;4.65;;
62687;SDS011;48752;51.056;17.056;2023-06-10T09:42:56;5.32;;;4.45;;
62687;SDS011;48752;51.056;17.056;2023-06-10T09:45:22;4.72;;;4.32;;
62687;SDS011;48752;51.056;17.056;2023-06-10T09:47:51;6.88;;;5.45;;
62687;SDS011;48752;51.056;17.056;2023-06-10T09:50:17;7.43;;;5.22;;
62687;SDS011;48752;51.056;17.056;2023-06-10T09:52:42;7.07;;;6.15;;
62687;SDS011;48752;51.056;17.056;2023-06-10T09:55:08;6.80;;;5.60;;
62687;SDS011;48752;51.056;17.056;2023-06-10T09:57:33;6.72;;;5.80;;
62687;SDS011;48752;51.056;17.056;2023-06-10T09:59:59;7.68;;;5.95;;
62687;SDS011;48752;51.056;17.056;2023-06-10T10:02:24;6.85;;;6.10;;
62687;SDS011;48752;51.056;17.056;2023-06-10T10:04:49;7.47;;;6.67;;
62687;SDS011;48752;51.056;17.056;2023-06-10T10:07:15;10.15;;;7.00;;
62687;SDS011;48752;51.056;17.056;2023-06-10T10:21:52;8.68;;;7.47;;
